KINS/INS METAR and TAF weather

Enter ICAO airport designator
Station Type Date Time Source
KINS METAR 2020/05/29 19:58 UTC NOAA

KINS 291958Z AUTO 11017G26KT 10SM CLR 38/M05 A2992 RMK AO2 PK WND 12030/24 SLP074 T03841055 $


Station Type Date Time Source
KINS Decoded METAR 2020/05/29 19:58 UTC NOAA

Indian Springs, Indian Springs Auxiliary AFLD Nellis AFB, NV, United States (KINS) 36-35N 115-40W
May 29, 2020 - 03:58 PM EDT / 2020.05.29 1958 UTC
Wind: from the ESE (110 degrees) at 20 MPH (17 KT) gusting to 30 MPH (26 KT):0
Visibility: 10 mile(s):0
Sky conditions: clear
Temperature: 101.1 F (38.4 C)
Dew Point: 22.1 F (-5.5 C)
Relative Humidity: 5%
Pressure (altimeter): 29.92 in. Hg (1013 hPa)
ob: KINS 291958Z AUTO 11017G26KT 10SM CLR 38/M05 A2992 RMK AO2 PK WND 12030/24 SLP074 T03841055
cycle: 20

Station Type Date Time Source
KINS TAF 2020/05/29 13:03 UTC NOAA

TAF KINS 291258Z 2913/3019 12009KT 9999 SKC QNH2996INS
BECMG 2915/2916 13012G18KT 9999 SKC QNH3001INS
BECMG 2917/2918 14018G30KT 9999 SKC 510009 QNH2999INS
BECMG 2921/2922 21020G30KT 9999 SCT250 510009 QNH2990INS WND 140V210
TEMPO 2922/3003 21020G35KT 520009 WND 140V210
BECMG 3003/3004 21012G20KT 9999 FEW200 BKN250 QNH2988INS
BECMG 3007/3008 22009KT 9999 FEW200 BKN250 QNH2991INS
BECMG 3016/3017 21012G20KT 9999 SCT250 QNH2987INS
BECMG 3017/3018 22020G30KT 9999 SCT250 510009 QNH2987INS TX39/2922Z TN17/3012Z

Example: see airport list